Strona główna
METAR-TAF:

METAR-TAF

Lotnisko :

College Park, Maryland, Stany Zjednoczone

Szerokość geograficzna: 38-58-50N, Długość geograficzna: 076-55-20W, wysokość: 15 m

Aktualna obserwacja pogody

Raport powstał 20 minut temu, godzina 10:48 UTC
Cisza
Temperatura 3°C
Wilgotność 75%
Ciśnienie 1024 hPa
Widzialność: 16.1 km
Rozproszone chmury na wysokości 1700 ft
Przerywane chmury na wysokości 2400 ft
Zachmurzenie całkowite na wysokości 3800 ft

METAR: KCGS 181048Z AUTO 00000KT 10SM SCT017 BKN024 OVC038 03/M01 A3025 RMK AO1 T00311009

czas: 06:08 (11:08 UTC)


TAF: brakujący

Obserwacja i prognoza pogody dla ponad 4000 lotnisk (raport METAR i TAF).

Dostępne stacje oznaczono żółtymi i czerwonymi punktami na mapie.

Najedź kursorem aby zobaczyć nazwę stacji.

Kliknij aby zobaczyć obserwacje i prognozy pogody.

Aby zmienić mapę: kliknij na zielony przycisk z czarnym krzyżykiem, aby powiększyć; na zielony przycisk z myślnikiem, aby pomniejszyć; na zielone strzałki, aby przejść do map sąsiednich.


METAR-TAF: